Time;durP1;ratioP1;P1;durP2;ratioP2;P2;SDS_P1;SDS_P2;PMS_P1;PMS_P2;Temp;Humidity;BMP_temperature;BMP_pressure;BME280_temperature;BME280_humidity;BME280_pressure;Samples;Min_cycle;Max_cycle;Signal;HPM_P1;HPM_P2
2024/01/08 00:02:25;;;;;;;1.33;0.73;;;;;;;10.60;65.18;99817.94;4909870;29;20409;-88
2024/01/08 00:04:50;;;;;;;0.60;0.60;;;;;;;10.61;65.43;99816.97;4914518;29;20398;-89
2024/01/08 00:07:16;;;;;;;0.70;0.70;;;;;;;10.68;65.02;99816.00;4912580;29;20406;-87
2024/01/08 00:09:41;;;;;;;0.40;0.40;;;;;;;10.70;64.81;99821.91;4909643;29;20394;-84
2024/01/08 00:12:07;;;;;;;0.90;0.90;;;;;;;10.62;65.24;99822.03;4903924;29;20405;-87
2024/01/08 00:14:33;;;;;;;1.50;1.40;;;;;;;10.64;65.42;99828.00;4895469;29;20553;-85
2024/01/08 00:16:58;;;;;;;0.50;0.50;;;;;;;10.61;65.61;99832.84;4897298;29;20414;-87
2024/01/08 00:19:24;;;;;;;0.90;0.90;;;;;;;10.71;65.01;99833.31;4897933;29;20469;-87
2024/01/08 00:21:49;;;;;;;0.50;0.50;;;;;;;10.82;65.04;99829.31;4897115;29;20481;-87
2024/01/08 00:24:15;;;;;;;0.70;0.70;;;;;;;10.88;64.71;99844.47;4896575;29;20833;-89
2024/01/08 00:26:40;;;;;;;1.00;1.00;;;;;;;10.84;64.60;99838.75;4902517;29;20417;-89
2024/01/08 00:29:06;;;;;;;0.80;0.80;;;;;;;10.83;64.95;99842.38;4911838;29;20487;-86
2024/01/08 00:31:32;;;;;;;0.80;0.80;;;;;;;10.93;64.54;99842.06;4914712;29;20417;-87
2024/01/08 00:33:57;;;;;;;0.90;0.90;;;;;;;10.93;64.38;99849.19;4900511;29;20944;-88
2024/01/08 00:36:24;;;;;;;0.20;0.20;;;;;;;10.93;64.48;99849.19;4898270;29;20414;-88
2024/01/08 00:38:49;;;;;;;0.60;0.60;;;;;;;10.95;64.42;99850.66;4896768;29;20469;-85
2024/01/08 00:41:15;;;;;;;0.77;0.77;;;;;;;10.95;64.24;99842.69;4895376;29;20489;-88
2024/01/08 00:43:41;;;;;;;0.20;0.20;;;;;;;10.96;64.19;99851.47;4895452;29;20411;-87
2024/01/08 00:46:07;;;;;;;0.77;0.77;;;;;;;10.97;64.61;99853.09;4894988;29;20402;-86
2024/01/08 00:48:33;;;;;;;0.57;0.57;;;;;;;10.98;64.20;99860.03;4897869;29;20405;-86
2024/01/08 00:50:58;;;;;;;0.37;0.37;;;;;;;10.96;64.33;99856.75;4895976;29;20414;-88
2024/01/08 00:53:24;;;;;;;0.28;0.28;;;;;;;10.86;64.28;99859.75;4894936;29;20414;-88
2024/01/08 00:55:50;;;;;;;0.40;0.40;;;;;;;10.86;64.63;99863.22;4894131;29;20842;-86
2024/01/08 00:58:16;;;;;;;1.10;0.82;;;;;;;10.82;64.44;99869.09;4893566;29;20505;-85
2024/01/08 01:00:42;;;;;;;0.63;0.63;;;;;;;10.70;64.78;99874.13;4895676;29;20470;-84
2024/01/08 01:03:07;;;;;;;1.60;1.50;;;;;;;10.63;65.14;99875.88;4894434;29;20901;-84
2024/01/08 01:05:33;;;;;;;0.90;0.90;;;;;;;10.55;65.54;99884.75;4892617;29;20458;-83
2024/01/08 01:07:59;;;;;;;0.70;0.70;;;;;;;10.35;66.64;99886.41;4894200;29;21042;-86
2024/01/08 01:10:24;;;;;;;0.80;0.70;;;;;;;10.29;66.91;99887.97;4892934;29;20757;-87
2024/01/08 01:12:50;;;;;;;1.13;0.75;;;;;;;10.30;66.80;99893.09;4893819;29;20406;-84
2024/01/08 01:15:15;;;;;;;0.60;0.60;;;;;;;10.20;67.11;99897.03;4893955;29;20462;-86
2024/01/08 01:17:41;;;;;;;0.60;0.60;;;;;;;10.09;67.25;99893.06;4893275;29;20540;-86
2024/01/08 01:20:07;;;;;;;1.10;1.00;;;;;;;10.06;67.92;99896.06;4895205;29;20406;-84
2024/01/08 01:22:33;;;;;;;0.45;0.45;;;;;;;10.13;67.68;99894.31;4894746;29;20901;-87
2024/01/08 01:24:58;;;;;;;1.30;1.20;;;;;;;9.91;68.34;99914.66;4894732;29;20981;-86
2024/01/08 01:27:24;;;;;;;1.30;1.20;;;;;;;9.82;67.74;99910.47;4894758;29;20394;-85
2024/01/08 01:29:50;;;;;;;0.60;0.60;;;;;;;9.67;66.98;99915.75;4893775;29;20481;-87
2024/01/08 01:32:15;;;;;;;0.30;0.30;;;;;;;9.40;68.30;99910.13;4893412;29;20446;-88
2024/01/08 01:34:41;;;;;;;0.60;0.60;;;;;;;9.53;67.61;99918.22;4894950;29;20394;-86
2024/01/08 01:37:06;;;;;;;0.20;0.20;;;;;;;9.28;67.15;99911.56;4892344;29;20929;-86
2024/01/08 01:39:33;;;;;;;0.20;0.20;;;;;;;8.93;68.22;99927.91;4892160;29;20434;-87
2024/01/08 01:41:58;;;;;;;0.10;0.10;;;;;;;8.78;68.46;99922.56;4891586;29;20489;-88
2024/01/08 01:44:24;;;;;;;0.50;0.50;;;;;;;8.81;67.98;99924.06;4893293;29;20977;-88
2024/01/08 01:46:51;;;;;;;1.30;1.20;;;;;;;8.78;68.66;99927.03;4894462;29;20469;-87
2024/01/08 01:49:19;;;;;;;0.10;0.10;;;;;;;8.75;68.46;99927.38;4904649;29;20421;-87
2024/01/08 01:51:47;;;;;;;0.20;0.20;;;;;;;8.83;68.02;99945.03;4911105;29;20400;-88
2024/01/08 01:54:15;;;;;;;0.10;0.10;;;;;;;8.79;67.80;99934.81;4927214;29;20396;-88
2024/01/08 01:56:43;;;;;;;0.20;0.20;;;;;;;8.89;67.22;99937.19;4911775;29;20409;-86
2024/01/08 01:59:10;;;;;;;0.10;0.10;;;;;;;8.92;67.05;99938.66;4912554;29;20396;-87
2024/01/08 02:01:36;;;;;;;0.10;0.10;;;;;;;8.83;66.74;99939.75;4912649;29;20393;-87
2024/01/08 02:04:02;;;;;;;0.20;0.20;;;;;;;8.75;66.89;99945.88;4912444;29;20397;-86
2024/01/08 02:06:29;;;;;;;0.10;0.10;;;;;;;8.75;66.76;99940.59;4930019;29;20468;-86
2024/01/08 02:08:55;;;;;;;0.10;0.10;;;;;;;8.59;66.94;99950.31;4913949;29;20892;-87
2024/01/08 02:11:21;;;;;;;0.20;0.20;;;;;;;8.67;66.75;99952.06;4918698;29;20451;-84
2024/01/08 02:13:48;;;;;;;0.10;0.10;;;;;;;8.71;66.18;99953.34;4925381;29;20405;-84
2024/01/08 02:16:14;;;;;;;0.10;0.10;;;;;;;8.70;65.92;99959.66;4927254;29;20440;-87
2024/01/08 02:18:40;;;;;;;0.20;0.20;;;;;;;8.70;65.74;99958.84;4920209;29;20400;-87
2024/01/08 02:21:06;;;;;;;0.10;0.10;;;;;;;8.48;65.50;99974.50;4912315;29;20482;-83
2024/01/08 02:23:31;;;;;;;0.10;0.10;;;;;;;8.37;65.79;99970.41;4909183;29;20409;-84
2024/01/08 02:25:58;;;;;;;0.10;0.10;;;;;;;8.22;65.71;99983.50;4911007;29;20432;-87
2024/01/08 02:28:23;;;;;;;0.43;0.40;;;;;;;8.09;65.44;99979.78;4911078;29;20459;-86
2024/01/08 02:30:49;;;;;;;0.20;0.20;;;;;;;8.07;65.10;99976.47;4916718;29;20396;-88
2024/01/08 02:33:14;;;;;;;0.10;0.10;;;;;;;7.91;65.29;99985.31;4921472;29;20400;-85
2024/01/08 02:35:41;;;;;;;0.20;0.20;;;;;;;7.77;65.80;99994.72;4925131;29;20400;-85
2024/01/08 02:38:07;;;;;;;0.10;0.10;;;;;;;7.72;65.42;99997.06;4901205;29;20455;-86
2024/01/08 02:40:32;;;;;;;0.20;0.20;;;;;;;7.81;65.63;100002.16;4912695;29;20821;-87
2024/01/08 02:42:58;;;;;;;0.10;0.10;;;;;;;8.03;65.09;99999.75;4927663;29;20393;-87
2024/01/08 02:45:24;;;;;;;0.20;0.20;;;;;;;8.09;64.54;100004.34;4911599;29;20399;-85
2024/01/08 02:47:49;;;;;;;0.20;0.20;;;;;;;8.38;64.59;100018.75;4912589;29;20419;-87
2024/01/08 02:50:15;;;;;;;0.10;0.10;;;;;;;8.48;64.15;100019.41;4912893;29;20388;-87
2024/01/08 02:52:40;;;;;;;0.10;0.10;;;;;;;8.14;64.04;100025.78;4913606;29;20467;-87
2024/01/08 02:55:06;;;;;;;0.20;0.20;;;;;;;7.98;65.02;100025.84;4912166;29;20764;-87
2024/01/08 02:57:33;;;;;;;0.30;0.30;;;;;;;7.91;64.82;100022.25;4927167;29;20460;-88
2024/01/08 02:59:58;;;;;;;0.20;0.20;;;;;;;7.99;64.92;100040.69;4912230;29;20852;-87
2024/01/08 03:02:25;;;;;;;0.20;0.20;;;;;;;8.26;64.92;100054.44;4911324;29;20424;-86
2024/01/08 03:04:52;;;;;;;0.20;0.20;;;;;;;8.53;64.49;100056.66;4911530;29;20405;-87
2024/01/08 03:07:20;;;;;;;0.10;0.10;;;;;;;8.69;63.38;100062.88;4911386;29;20408;-87
2024/01/08 03:09:46;;;;;;;0.10;0.10;;;;;;;8.41;63.31;100050.91;4911645;29;20392;-87
2024/01/08 03:12:13;;;;;;;3.58;0.38;;;;;;;8.30;63.73;100066.31;4911491;29;20419;-86
2024/01/08 03:14:38;;;;;;;0.10;0.10;;;;;;;8.21;63.83;100068.16;4911272;29;20460;-83
2024/01/08 03:17:04;;;;;;;0.50;0.20;;;;;;;8.03;64.23;100057.81;4911073;29;20417;-84
2024/01/08 03:19:30;;;;;;;0.30;0.30;;;;;;;8.07;64.36;100068.84;4909924;29;20396;-84
2024/01/08 03:21:55;;;;;;;0.10;0.10;;;;;;;8.12;64.00;100079.72;4925435;29;20408;-88
2024/01/08 03:24:21;;;;;;;0.20;0.20;;;;;;;8.10;64.38;100076.44;4910304;29;20437;-85
2024/01/08 03:26:47;;;;;;;0.10;0.10;;;;;;;7.92;64.69;100085.38;4911033;29;20396;-86
2024/01/08 03:29:13;;;;;;;0.40;0.20;;;;;;;7.73;64.71;100088.41;4909005;29;20425;-85
2024/01/08 03:31:45;;;;;;;0.20;0.20;;;;;;;7.73;64.79;100094.50;4910520;29;20401;-86
2024/01/08 03:34:12;;;;;;;0.10;0.10;;;;;;;7.47;64.06;100099.94;4925836;29;20405;-86
2024/01/08 03:36:37;;;;;;;0.15;0.15;;;;;;;7.23;65.42;100106.03;4911271;29;20775;-84
2024/01/08 03:39:03;;;;;;;0.10;0.10;;;;;;;7.13;65.20;100115.91;4926459;29;20709;-84
2024/01/08 03:41:29;;;;;;;0.20;0.20;;;;;;;7.22;65.21;100117.56;4910984;29;20392;-87
2024/01/08 03:43:55;;;;;;;0.10;0.10;;;;;;;6.93;65.66;100116.19;4910978;29;20392;-85
2024/01/08 03:46:21;;;;;;;0.70;0.70;;;;;;;7.03;65.21;100129.22;4925982;29;20503;-86
2024/01/08 03:48:46;;;;;;;0.10;0.10;;;;;;;6.85;65.14;100121.44;4909885;29;20485;-84
2024/01/08 03:51:12;;;;;;;0.10;0.10;;;;;;;6.96;65.33;100134.31;4910859;29;20388;-84
2024/01/08 03:53:37;;;;;;;0.20;0.20;;;;;;;7.15;64.90;100137.63;4925694;29;20450;-87
2024/01/08 03:56:04;;;;;;;0.13;0.13;;;;;;;7.22;64.25;100146.56;4910502;29;20447;-86
2024/01/08 03:58:30;;;;;;;0.30;0.20;;;;;;;6.98;64.58;100152.59;4911063;29;20426;-86
2024/01/08 04:00:55;;;;;;;0.13;0.13;;;;;;;6.95;64.94;100152.91;4911578;29;20841;-87
2024/01/08 04:03:22;;;;;;;0.20;0.20;;;;;;;7.17;64.33;100154.97;4912636;29;20416;-88
2024/01/08 04:05:48;;;;;;;0.15;0.15;;;;;;;7.21;64.08;100156.28;4911094;29;20991;-86
2024/01/08 04:08:14;;;;;;;0.10;0.10;;;;;;;7.20;64.29;100159.91;4926158;29;20392;-87
2024/01/08 04:10:40;;;;;;;0.13;0.13;;;;;;;7.25;64.58;100173.41;4910461;29;20410;-87
2024/01/08 04:13:06;;;;;;;0.10;0.10;;;;;;;7.20;64.20;100175.72;4913278;29;20791;-89
2024/01/08 04:15:31;;;;;;;0.20;0.20;;;;;;;7.15;64.67;100178.03;4924116;29;20401;-85
2024/01/08 04:17:57;;;;;;;0.10;0.10;;;;;;;7.23;63.96;100183.28;4946466;29;20413;-85
2024/01/08 04:20:23;;;;;;;0.10;0.10;;;;;;;7.38;64.30;100185.31;4939875;29;20416;-85
2024/01/08 04:22:50;;;;;;;0.10;0.10;;;;;;;7.37;63.99;100186.31;4911124;29;20507;-89
2024/01/08 04:25:16;;;;;;;0.40;0.40;;;;;;;7.42;63.96;100199.84;4910133;29;20466;-87
2024/01/08 04:27:43;;;;;;;0.10;0.10;;;;;;;7.24;63.66;100198.13;4912413;29;20393;-87
2024/01/08 04:30:09;;;;;;;0.10;0.10;;;;;;;7.07;64.22;100201.72;4927269;29;21430;-86
2024/01/08 04:32:35;;;;;;;0.20;0.20;;;;;;;6.97;64.06;100199.22;4914523;29;20424;-86
2024/01/08 04:35:03;;;;;;;0.10;0.10;;;;;;;6.78;64.91;100218.72;4924334;29;20400;-86
2024/01/08 04:37:29;;;;;;;0.10;0.10;;;;;;;6.96;64.23;100217.81;4946850;29;20435;-88
2024/01/08 04:39:55;;;;;;;0.20;0.20;;;;;;;6.98;63.96;100229.84;4943356;29;20408;-87
2024/01/08 04:42:21;;;;;;;0.10;0.10;;;;;;;6.91;64.17;100233.28;4916029;29;20435;-87
2024/01/08 04:44:47;;;;;;;0.10;0.10;;;;;;;6.76;64.38;100235.69;4912974;29;20519;-89
2024/01/08 04:47:12;;;;;;;0.10;0.10;;;;;;;6.85;64.18;100242.63;4900013;29;20412;-89
2024/01/08 04:49:38;;;;;;;0.10;0.10;;;;;;;6.70;64.31;100245.84;4897156;29;20481;-87
2024/01/08 04:52:04;;;;;;;0.10;0.10;;;;;;;6.82;64.20;100243.75;4895003;29;20450;-86
2024/01/08 04:54:29;;;;;;;0.10;0.10;;;;;;;6.96;64.22;100255.53;4894159;29;20410;-86
2024/01/08 04:56:55;;;;;;;0.10;0.10;;;;;;;7.03;63.90;100256.53;4892505;29;20441;-85
2024/01/08 04:59:22;;;;;;;0.10;0.10;;;;;;;7.15;63.51;100256.25;4886152;29;20414;-89
2024/01/08 05:01:49;;;;;;;0.13;0.13;;;;;;;7.03;63.43;100263.63;4891043;29;20413;-88
2024/01/08 05:04:15;;;;;;;0.10;0.10;;;;;;;7.01;63.62;100265.59;4894605;29;20405;-87
2024/01/08 05:06:42;;;;;;;0.10;0.10;;;;;;;7.04;63.57;100273.16;4893078;29;20402;-87
2024/01/08 05:09:08;;;;;;;0.10;0.10;;;;;;;7.01;63.57;100276.97;4893939;29;20414;-85
2024/01/08 05:11:34;;;;;;;0.10;0.10;;;;;;;7.08;63.49;100288.53;4894439;29;20430;-88
2024/01/08 05:14:00;;;;;;;0.10;0.10;;;;;;;6.87;63.90;100291.53;4895100;29;20446;-88
2024/01/08 05:16:25;;;;;;;0.13;0.13;;;;;;;6.83;63.86;100294.66;4896896;29;20410;-83
2024/01/08 05:18:51;;;;;;;0.20;0.20;;;;;;;6.97;63.49;100303.78;4891451;29;21247;-86
2024/01/08 05:21:17;;;;;;;0.30;0.30;;;;;;;7.08;63.43;100306.97;4890974;29;21928;-86
2024/01/08 05:23:46;;;;;;;0.20;0.20;;;;;;;7.22;63.09;100304.72;4903683;29;20432;-86
2024/01/08 05:26:11;;;;;;;0.10;0.10;;;;;;;7.31;63.25;100313.50;4895790;29;20398;-87
2024/01/08 05:28:37;;;;;;;0.10;0.10;;;;;;;7.26;63.12;100317.44;4893355;29;20474;-87
2024/01/08 05:31:03;;;;;;;0.28;0.28;;;;;;;7.30;62.92;100314.50;4887932;29;20400;-85
2024/01/08 05:33:28;;;;;;;0.10;0.10;;;;;;;7.33;62.85;100322.06;4896865;29;20485;-88
2024/01/08 05:35:54;;;;;;;0.20;0.20;;;;;;;7.38;62.47;100325.91;4893726;29;20458;-89
2024/01/08 05:38:20;;;;;;;0.10;0.10;;;;;;;7.46;62.51;100325.09;4893468;29;20409;-89
2024/01/08 05:40:46;;;;;;;0.10;0.10;;;;;;;7.53;62.41;100335.84;4892531;29;20417;-91
2024/01/08 05:43:13;;;;;;;0.20;0.20;;;;;;;7.52;62.43;100334.19;4896141;29;20766;-93
2024/01/08 05:45:39;;;;;;;0.10;0.10;;;;;;;7.54;62.25;100343.56;4897017;29;20913;-89
2024/01/08 05:48:06;;;;;;;0.10;0.10;;;;;;;7.50;61.84;100344.06;4897877;29;20432;-91
2024/01/08 05:50:32;;;;;;;0.20;0.20;;;;;;;7.53;62.02;100351.69;4897803;29;20402;-89
2024/01/08 05:52:59;;;;;;;0.60;0.30;;;;;;;7.56;62.12;100346.06;4894762;29;20410;-88
2024/01/08 05:55:26;;;;;;;0.10;0.10;;;;;;;7.55;61.89;100354.97;4898737;29;20909;-92
2024/01/08 05:57:52;;;;;;;0.70;0.70;;;;;;;7.52;61.87;100352.66;4896848;29;20456;-89
2024/01/08 06:00:18;;;;;;;1.35;0.70;;;;;;;7.24;61.50;100355.50;4898846;29;20438;-88
2024/01/08 06:02:44;;;;;;;0.70;0.70;;;;;;;6.95;61.77;100361.91;4897169;29;20405;-87
2024/01/08 06:05:09;;;;;;;0.20;0.20;;;;;;;6.81;61.91;100375.66;4896267;29;20409;-87
2024/01/08 06:07:36;;;;;;;0.40;0.40;;;;;;;6.64;61.96;100374.69;4895578;29;20418;-87
2024/01/08 06:10:02;;;;;;;1.00;0.43;;;;;;;6.63;61.83;100386.22;4894983;29;20402;-91
2024/01/08 06:12:28;;;;;;;0.10;0.10;;;;;;;6.30;61.67;100375.38;4896581;29;20791;-88
2024/01/08 06:14:55;;;;;;;0.23;0.23;;;;;;;6.52;62.20;100389.91;4897039;29;20441;-90
2024/01/08 06:17:21;;;;;;;0.17;0.17;;;;;;;6.04;61.84;100396.34;4910104;29;20422;-89
2024/01/08 06:19:49;;;;;;;0.20;0.20;;;;;;;6.28;61.66;100401.88;4912447;29;20405;-85
2024/01/08 06:22:15;;;;;;;0.28;0.28;;;;;;;6.20;61.97;100393.06;4912226;29;20394;-89
2024/01/08 06:24:41;;;;;;;0.20;0.20;;;;;;;6.26;61.67;100401.19;4898649;29;20482;-89
2024/01/08 06:27:06;;;;;;;0.10;0.10;;;;;;;6.21;61.95;100413.13;4897153;29;20409;-89
2024/01/08 06:29:32;;;;;;;0.10;0.10;;;;;;;6.07;61.53;100417.94;4897776;29;20547;-89
2024/01/08 06:31:59;;;;;;;0.10;0.10;;;;;;;6.04;61.94;100414.78;4896257;29;20404;-89
2024/01/08 06:34:25;;;;;;;0.10;0.10;;;;;;;6.21;61.90;100419.25;4896824;29;20399;-88
2024/01/08 06:36:50;;;;;;;0.10;0.10;;;;;;;6.15;61.57;100432.16;4899492;29;20473;-88
2024/01/08 06:39:17;;;;;;;0.10;0.10;;;;;;;6.02;61.91;100437.78;4905472;29;20422;-88
2024/01/08 06:41:43;;;;;;;0.17;0.17;;;;;;;6.12;61.68;100446.44;4914770;29;20406;-88
2024/01/08 06:44:11;;;;;;;0.80;0.50;;;;;;;6.20;61.49;100450.97;4904050;29;20434;-87
2024/01/08 06:46:41;;;;;;;1.20;0.70;;;;;;;6.23;61.74;100458.56;4918648;29;20906;-87
2024/01/08 06:49:08;;;;;;;0.53;0.53;;;;;;;6.06;61.85;100461.00;4903365;29;20403;-87
2024/01/08 06:51:41;;;;;;;0.10;0.10;;;;;;;5.98;61.70;100465.34;4902001;29;20406;-86
2024/01/08 06:54:07;;;;;;;0.20;0.20;;;;;;;6.07;61.92;100467.13;4905766;29;20378;-87
2024/01/08 06:56:33;;;;;;;0.50;0.50;;;;;;;6.12;62.00;100470.97;4907505;29;20425;-87
2024/01/08 06:59:03;;;;;;;0.20;0.20;;;;;;;6.16;61.04;100474.13;4906726;29;20407;-88
2024/01/08 07:01:30;;;;;;;0.20;0.20;;;;;;;6.30;61.30;100488.56;4899673;29;20406;-87
2024/01/08 07:04:14;;;;;;;0.30;0.30;;;;;;;6.37;61.15;100489.66;4894728;29;20401;-89
2024/01/08 07:06:40;;;;;;;0.10;0.10;;;;;;;6.26;61.09;100495.94;4895536;29;20401;-88
2024/01/08 07:09:06;;;;;;;0.30;0.30;;;;;;;6.24;61.29;100502.34;4896069;29;20398;-89
2024/01/08 07:11:31;;;;;;;0.60;0.60;;;;;;;6.36;61.40;100513.50;4895668;29;20401;-87
2024/01/08 07:13:58;;;;;;;0.88;0.88;;;;;;;6.42;61.02;100513.72;4897245;29;20485;-87
2024/01/08 07:16:26;;;;;;;0.35;0.35;;;;;;;6.39;60.62;100523.72;4896656;29;21063;-88
2024/01/08 07:18:52;;;;;;;0.30;0.30;;;;;;;6.40;60.60;100520.94;4896036;29;20462;-89
2024/01/08 07:21:19;;;;;;;0.30;0.30;;;;;;;6.44;60.79;100527.56;4897748;29;20431;-89
2024/01/08 07:23:47;;;;;;;0.50;0.50;;;;;;;6.48;60.50;100533.38;4897949;29;21028;-90
2024/01/08 07:26:14;;;;;;;0.35;0.35;;;;;;;6.42;60.26;100544.50;4896380;29;20394;-89
2024/01/08 07:28:47;;;;;;;0.43;0.43;;;;;;;6.40;60.73;100549.09;4899633;29;20397;-89
2024/01/08 07:31:15;;;;;;;0.20;0.20;;;;;;;6.42;60.39;100555.84;4898715;29;20410;-87
2024/01/08 07:33:41;;;;;;;0.40;0.40;;;;;;;6.43;60.57;100561.97;4927443;29;20426;-87
2024/01/08 07:36:07;;;;;;;0.55;0.55;;;;;;;6.42;60.38;100576.09;4896329;29;20790;-87
2024/01/08 07:38:36;;;;;;;0.40;0.30;;;;;;;6.51;60.37;100569.94;4895171;29;20450;-87
2024/01/08 07:41:07;;;;;;;0.15;0.15;;;;;;;6.51;60.09;100575.22;4898587;29;20406;-88
2024/01/08 07:43:35;;;;;;;0.63;0.63;;;;;;;6.46;60.46;100570.41;4896380;29;20455;-88
2024/01/08 07:46:01;;;;;;;0.20;0.20;;;;;;;6.50;60.35;100586.75;4897145;29;20425;-88
2024/01/08 07:48:27;;;;;;;0.28;0.28;;;;;;;6.56;60.41;100588.78;4897652;29;20386;-88
2024/01/08 07:50:58;;;;;;;0.22;0.22;;;;;;;6.53;60.04;100589.06;4901161;29;20453;-87
2024/01/08 07:56:08;;;;;;;0.40;0.40;;;;;;;6.44;59.97;100598.66;4905090;29;20469;-88
2024/01/08 07:58:33;;;;;;;0.30;0.30;;;;;;;6.28;59.61;100607.22;4904740;29;20398;-85
2024/01/08 08:00:59;;;;;;;0.20;0.20;;;;;;;6.04;59.53;100607.69;4904662;29;20431;-87
2024/01/08 08:03:32;;;;;;;0.50;0.50;;;;;;;5.94;60.14;100612.97;4897814;29;20930;-86
2024/01/08 08:06:00;;;;;;;0.20;0.20;;;;;;;5.79;60.13;100617.00;4894137;29;20430;-86
2024/01/08 08:08:26;;;;;;;0.10;0.10;;;;;;;6.02;60.08;100627.22;4895096;29;20408;-87
2024/01/08 08:10:51;;;;;;;0.10;0.10;;;;;;;6.01;59.71;100628.19;4894448;29;20398;-86
2024/01/08 08:13:20;;;;;;;0.20;0.20;;;;;;;5.54;60.13;100631.56;4894535;29;20409;-87
2024/01/08 08:15:45;;;;;;;0.20;0.20;;;;;;;5.33;61.36;100626.44;4911716;29;20410;-87
2024/01/08 08:18:11;;;;;;;0.30;0.30;;;;;;;5.47;61.15;100641.78;4898019;29;20419;-87
2024/01/08 08:20:37;;;;;;;0.10;0.10;;;;;;;5.53;61.42;100640.44;4915561;29;20426;-88
2024/01/08 08:23:03;;;;;;;0.10;0.10;;;;;;;5.65;61.35;100628.75;4919699;29;20426;-86
2024/01/08 08:25:29;;;;;;;0.20;0.20;;;;;;;5.88;60.79;100642.44;4894853;29;20436;-86
2024/01/08 08:27:55;;;;;;;0.30;0.30;;;;;;;6.04;60.69;100643.72;4881968;29;20472;-87
2024/01/08 08:30:24;;;;;;;0.17;0.17;;;;;;;6.08;60.24;100652.97;4877106;29;20423;-87
2024/01/08 08:32:50;;;;;;;0.15;0.15;;;;;;;6.03;59.72;100657.81;4860179;29;20460;-87
2024/01/08 08:35:16;;;;;;;0.30;0.30;;;;;;;6.19;60.03;100663.31;4856903;29;20417;-86
2024/01/08 08:37:42;;;;;;;0.20;0.20;;;;;;;6.19;60.03;100657.22;4860863;29;20437;-89
2024/01/08 08:40:08;;;;;;;0.20;0.20;;;;;;;6.26;59.90;100659.16;4862568;29;20827;-86
2024/01/08 08:42:33;;;;;;;0.40;0.40;;;;;;;6.35;59.95;100661.91;4865331;29;20450;-84
2024/01/08 08:44:59;;;;;;;0.20;0.20;;;;;;;6.45;59.77;100668.78;4878720;29;20414;-88
2024/01/08 08:47:25;;;;;;;0.27;0.27;;;;;;;6.53;59.46;100673.34;4865941;29;20466;-86
2024/01/08 08:49:50;;;;;;;0.30;0.30;;;;;;;6.50;59.50;100663.13;4860268;29;20880;-87
2024/01/08 08:52:16;;;;;;;0.23;0.23;;;;;;;6.41;59.57;100666.59;4860648;29;20409;-87
2024/01/08 08:54:41;;;;;;;0.30;0.30;;;;;;;6.45;59.86;100676.69;4861778;29;20409;-86
2024/01/08 08:57:10;;;;;;;0.32;0.32;;;;;;;6.43;59.58;100680.47;4876324;29;20504;-89
2024/01/08 08:59:37;;;;;;;1.08;1.05;;;;;;;6.28;60.06;100669.53;4861072;29;20409;-83
2024/01/08 09:02:03;;;;;;;0.33;0.33;;;;;;;6.09;60.39;100688.84;4860651;29;20390;-86
2024/01/08 09:04:28;;;;;;;0.40;0.40;;;;;;;5.93;60.44;100692.84;4874662;29;20898;-83
2024/01/08 09:06:54;;;;;;;1.90;1.80;;;;;;;6.03;60.51;100695.50;4860271;29;20414;-83
2024/01/08 09:09:19;;;;;;;1.00;1.00;;;;;;;6.11;60.11;100694.81;4874792;29;20405;-85
2024/01/08 09:11:46;;;;;;;0.38;0.38;;;;;;;6.18;59.90;100697.72;4859102;29;20402;-85
2024/01/08 09:14:11;;;;;;;0.40;0.40;;;;;;;6.08;59.94;100702.97;4859470;29;20419;-86
2024/01/08 09:16:42;;;;;;;0.53;0.53;;;;;;;6.08;60.28;100695.91;4860022;29;20500;-84
2024/01/08 09:19:10;;;;;;;0.17;0.17;;;;;;;6.33;60.02;100704.16;4858656;29;20397;-85
2024/01/08 09:21:36;;;;;;;0.20;0.20;;;;;;;6.38;59.59;100698.47;4873250;29;20408;-85
2024/01/08 09:24:02;;;;;;;0.20;0.20;;;;;;;6.50;59.76;100705.25;4865975;29;20423;-85
2024/01/08 09:26:28;;;;;;;0.10;0.10;;;;;;;6.24;59.42;100702.38;4877825;29;20898;-84
2024/01/08 09:28:57;;;;;;;0.25;0.25;;;;;;;6.34;59.97;100707.63;4876113;29;20401;-85
2024/01/08 09:31:22;;;;;;;0.13;0.13;;;;;;;6.42;59.86;100713.03;4877100;29;20882;-85
2024/01/08 09:33:50;;;;;;;0.10;0.10;;;;;;;6.40;59.85;100709.69;4878302;29;20408;-84
2024/01/08 09:36:15;;;;;;;0.90;0.90;;;;;;;6.39;59.15;100719.41;4876746;29;20940;-84
2024/01/08 09:38:41;;;;;;;0.50;0.50;;;;;;;6.17;59.51;100714.47;4878339;29;20447;-86
2024/01/08 09:41:13;;;;;;;0.25;0.25;;;;;;;6.06;59.44;100707.53;4878643;29;20422;-85
2024/01/08 09:43:39;;;;;;;0.80;0.40;;;;;;;6.20;59.31;100714.19;4877642;29;20934;-84
2024/01/08 09:46:07;;;;;;;0.13;0.13;;;;;;;6.06;58.65;100713.63;4878544;29;20392;-85
2024/01/08 09:48:36;;;;;;;0.20;0.20;;;;;;;6.12;59.14;100720.13;4878927;29;20419;-84
2024/01/08 09:51:03;;;;;;;0.45;0.45;;;;;;;6.26;59.02;100721.50;4877088;29;20911;-89
2024/01/08 09:53:35;;;;;;;0.80;0.80;;;;;;;6.37;58.83;100723.97;4876873;29;20428;-86
2024/01/08 09:56:02;;;;;;;0.32;0.25;;;;;;;6.31;57.96;100721.91;4878308;29;20407;-86
2024/01/08 09:58:31;;;;;;;0.15;0.15;;;;;;;5.75;58.75;100729.53;4877803;29;20483;-85
2024/01/08 10:00:59;;;;;;;0.50;0.50;;;;;;;5.89;58.61;100724.84;4877825;29;20466;-85
2024/01/08 10:03:26;;;;;;;0.10;0.10;;;;;;;5.85;59.08;100726.94;4876934;29;20399;-86
2024/01/08 10:05:52;;;;;;;0.60;0.60;;;;;;;5.64;58.29;100728.88;4877069;29;20784;-85
2024/01/08 10:08:17;;;;;;;0.28;0.28;;;;;;;5.57;58.70;100725.13;4876947;29;20923;-85
2024/01/08 10:10:44;;;;;;;0.17;0.17;;;;;;;5.41;59.57;100726.47;4878344;29;20410;-86
2024/01/08 10:13:10;;;;;;;0.47;0.40;;;;;;;5.57;58.51;100736.47;4877546;29;20494;-85
2024/01/08 10:15:37;;;;;;;0.20;0.20;;;;;;;5.53;58.63;100730.66;4875357;29;20454;-85
2024/01/08 10:18:06;;;;;;;0.20;0.20;;;;;;;5.58;58.61;100735.47;4874686;29;20416;-84
2024/01/08 10:20:34;;;;;;;0.20;0.20;;;;;;;5.61;58.50;100722.06;4876595;29;20397;-85
2024/01/08 10:23:09;;;;;;;0.30;0.25;;;;;;;5.63;58.36;100724.56;4875009;29;20463;-84
2024/01/08 10:25:38;;;;;;;0.30;0.30;;;;;;;5.58;57.64;100737.28;4875684;29;20474;-85
2024/01/08 10:28:10;;;;;;;0.20;0.20;;;;;;;5.79;58.08;100743.25;4876263;29;20833;-84
2024/01/08 10:30:36;;;;;;;0.20;0.20;;;;;;;5.69;57.83;100737.16;4884806;29;20415;-84
2024/01/08 10:33:05;;;;;;;0.17;0.17;;;;;;;5.65;57.88;100741.84;4879623;29;20435;-84
2024/01/08 10:35:30;;;;;;;0.20;0.20;;;;;;;5.69;58.34;100734.50;4877443;29;20410;-84
2024/01/08 10:38:00;;;;;;;0.65;0.65;;;;;;;5.67;58.80;100739.09;4876105;29;20420;-85
2024/01/08 10:40:29;;;;;;;0.20;0.20;;;;;;;5.67;58.61;100753.09;4877911;29;20477;-84
2024/01/08 10:42:56;;;;;;;0.35;0.35;;;;;;;5.70;58.10;100746.72;4877497;29;20844;-84
2024/01/08 10:45:21;;;;;;;0.40;0.40;;;;;;;5.56;57.51;100745.31;4876291;29;20490;-83
2024/01/08 10:48:05;;;;;;;0.30;0.30;;;;;;;5.85;57.54;100747.13;4878298;29;20479;-84
2024/01/08 10:50:33;;;;;;;0.40;0.30;;;;;;;5.88;56.99;100752.94;4885286;29;20436;-81
2024/01/08 10:53:02;;;;;;;0.50;0.50;;;;;;;6.02;56.95;100748.28;4880035;29;20753;-83
2024/01/08 10:55:30;;;;;;;0.20;0.20;;;;;;;6.07;56.72;100754.78;4876241;29;20408;-85
2024/01/08 10:58:00;;;;;;;0.70;0.70;;;;;;;5.96;56.44;100747.03;4877711;29;20419;-85
2024/01/08 11:00:28;;;;;;;0.30;0.30;;;;;;;6.06;56.83;100744.38;4876506;29;20548;-83
2024/01/08 11:02:55;;;;;;;0.83;0.83;;;;;;;6.08;56.48;100745.06;4876768;29;20472;-84
2024/01/08 11:05:21;;;;;;;0.50;0.35;;;;;;;5.97;55.86;100748.69;4876783;29;20483;-83
2024/01/08 11:07:51;;;;;;;0.22;0.22;;;;;;;6.13;56.58;100762.09;4877650;29;20813;-85
2024/01/08 11:10:21;;;;;;;0.52;0.52;;;;;;;6.02;56.27;100757.00;4874583;29;20852;-84
2024/01/08 11:12:56;;;;;;;0.20;0.20;;;;;;;6.27;55.79;100763.47;4875321;29;20410;-84
2024/01/08 11:15:28;;;;;;;0.20;0.20;;;;;;;6.04;55.49;100762.94;4891989;29;20455;-85
2024/01/08 11:17:56;;;;;;;0.68;0.68;;;;;;;5.95;55.61;100769.00;4876914;29;20416;-85
2024/01/08 11:20:56;;;;;;;0.30;0.30;;;;;;;6.06;54.51;100768.91;4876117;29;20418;-87
2024/01/08 11:23:34;;;;;;;0.30;0.30;;;;;;;6.26;54.69;100774.16;4875004;29;20983;-84
2024/01/08 11:26:09;;;;;;;0.20;0.20;;;;;;;6.10;54.71;100774.72;4875783;29;20816;-83
2024/01/08 11:28:40;;;;;;;0.25;0.25;;;;;;;6.15;55.71;100766.41;4875581;29;20420;-84
2024/01/08 11:31:33;;;;;;;0.10;0.10;;;;;;;5.82;54.70;100763.22;4876556;29;20496;-84
2024/01/08 11:33:58;;;;;;;0.30;0.30;;;;;;;6.13;55.46;100769.19;4877248;29;20418;-84
2024/01/08 11:36:53;;;;;;;0.90;0.90;;;;;;;6.18;54.87;100774.84;4877169;29;20415;-86